createdAt,value
2019-03-22T00:01:06.535Z,99206.41
2019-03-22T00:03:35.932Z,99202.08
2019-03-22T00:06:07.756Z,99201.28
2019-03-22T00:08:38.280Z,99203.77
2019-03-22T00:11:09.994Z,99200.70
2019-03-22T00:13:40.747Z,99203.77
2019-03-22T00:16:11.159Z,99201.82
2019-03-22T00:18:40.523Z,99196.66
2019-03-22T00:21:09.006Z,99201.59
2019-03-22T00:23:38.527Z,99203.78
2019-03-22T00:26:09.436Z,99206.30
2019-03-22T00:28:38.945Z,99210.39
2019-03-22T00:31:09.432Z,99214.22
2019-03-22T00:33:39.812Z,99210.92
2019-03-22T00:36:10.327Z,99213.14
2019-03-22T00:38:40.740Z,99197.25
2019-03-22T00:41:11.143Z,99195.88
2019-03-22T00:43:43.440Z,99206.86
2019-03-22T00:46:13.906Z,99199.70
2019-03-22T00:48:44.439Z,99193.69
2019-03-22T00:51:13.174Z,99191.49
2019-03-22T00:53:42.753Z,99192.31
2019-03-22T00:56:14.505Z,99184.16
2019-03-22T00:58:46.163Z,99187.45
2019-03-22T01:01:15.537Z,99186.39
2019-03-22T01:03:45.932Z,99191.30
2019-03-22T01:06:16.465Z,99184.22
2019-03-22T01:08:48.653Z,99180.67
2019-03-22T01:11:17.999Z,99177.95
2019-03-22T01:13:48.401Z,99177.68
2019-03-22T01:16:18.768Z,99178.80
2019-03-22T01:18:49.306Z,99173.87
2019-03-22T01:21:20.023Z,99174.43
2019-03-22T01:23:50.546Z,99175.80
2019-03-22T01:26:19.947Z,99171.41
2019-03-22T01:28:50.423Z,99169.23
2019-03-22T01:31:23.447Z,99173.62
2019-03-22T01:33:52.825Z,99172.53
2019-03-22T01:36:24.364Z,99165.43
2019-03-22T01:38:53.744Z,99177.19
2019-03-22T01:41:24.315Z,99177.19
2019-03-22T01:43:54.679Z,99176.09
2019-03-22T01:46:24.184Z,99174.45
2019-03-22T01:48:53.544Z,99175.55
2019-03-22T01:51:26.029Z,99176.93
2019-03-22T01:53:55.411Z,99178.30
2019-03-22T01:56:25.778Z,99177.73
2019-03-22T01:58:54.619Z,99176.09
2019-03-22T02:01:25.155Z,99172.26
2019-03-22T02:03:54.664Z,99170.89
2019-03-22T02:06:25.151Z,99166.79
2019-03-22T02:08:55.638Z,99164.34
2019-03-22T02:11:26.046Z,99165.17
2019-03-22T02:13:55.415Z,99162.97
2019-03-22T02:16:26.022Z,99160.52
2019-03-22T02:18:56.440Z,99160.51
2019-03-22T02:21:25.843Z,99153.13
2019-03-22T02:23:55.377Z,99153.67
2019-03-22T02:26:27.559Z,99145.48
2019-03-22T02:28:57.946Z,99140.83
2019-03-22T02:31:28.385Z,99138.39
2019-03-22T02:34:00.754Z,99131.53
2019-03-22T02:36:31.404Z,99132.09
2019-03-22T02:39:00.785Z,99128.26
2019-03-22T02:41:31.352Z,99133.17
2019-03-22T02:44:00.739Z,99131.26
2019-03-22T02:46:31.119Z,99135.92
2019-03-22T02:48:59.624Z,99134.28
2019-03-22T02:51:30.131Z,99129.38
2019-03-22T02:53:59.512Z,99134.81
2019-03-22T02:56:28.994Z,99130.71
2019-03-22T02:58:59.577Z,99132.34
2019-03-22T03:01:31.233Z,99133.98
2019-03-22T03:04:01.638Z,99139.19
2019-03-22T03:06:34.027Z,99129.34
2019-03-22T03:09:04.632Z,99130.18
2019-03-22T03:11:35.071Z,99129.89
2019-03-22T03:14:04.512Z,99129.63
2019-03-22T03:16:33.919Z,99129.08
2019-03-22T03:19:04.291Z,99133.44
2019-03-22T03:21:35.215Z,99134.25
2019-03-22T03:24:04.614Z,99134.53
2019-03-22T03:26:33.979Z,99135.09
2019-03-22T03:29:04.448Z,99142.73
2019-03-22T03:31:37.252Z,99134.52
2019-03-22T03:34:07.759Z,99132.33
2019-03-22T03:36:36.571Z,99133.95
2019-03-22T03:39:09.724Z,99131.22
2019-03-22T03:41:40.347Z,99140.52
2019-03-22T03:44:11.516Z,99132.03
2019-03-22T03:46:43.971Z,99135.84
2019-03-22T03:49:16.352Z,99131.48
2019-03-22T03:51:46.757Z,99129.04
2019-03-22T03:54:17.377Z,99132.58
2019-03-22T03:56:46.676Z,99135.03
2019-03-22T03:59:17.043Z,99133.63
2019-03-22T04:01:46.433Z,99126.54
2019-03-22T04:04:16.809Z,99131.45
2019-03-22T04:06:47.224Z,99138.02
2019-03-22T04:09:17.637Z,99136.64
2019-03-22T04:11:46.426Z,99139.35
2019-03-22T04:14:16.963Z,99134.45
2019-03-22T04:16:46.369Z,99136.34
2019-03-22T04:19:16.746Z,99139.09
2019-03-22T04:21:47.053Z,99140.13
2019-03-22T04:24:16.518Z,99132.52
2019-03-22T04:26:47.952Z,99135.28
2019-03-22T04:29:18.908Z,99133.63
2019-03-22T04:31:48.359Z,99136.35
2019-03-22T04:34:18.899Z,99138.80
2019-03-22T04:36:47.790Z,99134.99
2019-03-22T04:39:17.268Z,99140.16
2019-03-22T04:41:47.764Z,99139.35
2019-03-22T04:44:18.274Z,99142.36
2019-03-22T04:46:48.375Z,99148.60
2019-03-22T04:49:22.326Z,99153.50
2019-03-22T04:51:53.904Z,99166.62
2019-03-22T04:54:24.850Z,99159.00
2019-03-22T04:56:55.368Z,99162.26
2019-03-22T04:59:26.383Z,99163.61
2019-03-22T05:01:59.992Z,99160.61
2019-03-22T05:04:30.091Z,99163.03
2019-03-22T05:07:00.918Z,99166.31
2019-03-22T05:09:35.283Z,99168.50
2019-03-22T05:12:07.055Z,99169.07
2019-03-22T05:14:40.243Z,99165.27
2019-03-22T05:17:14.018Z,99163.41
2019-03-22T05:19:46.527Z,99168.33
2019-03-22T05:22:17.690Z,99161.00
2019-03-22T05:24:47.974Z,99170.63
2019-03-22T05:27:17.840Z,99158.06
2019-03-22T05:29:50.298Z,99167.27
2019-03-22T05:32:19.738Z,99165.92
2019-03-22T05:34:49.163Z,99158.62
2019-03-22T05:37:19.680Z,99153.91
2019-03-22T05:39:52.085Z,99147.04
2019-03-22T05:42:21.459Z,99148.00
2019-03-22T05:44:51.900Z,99150.07
2019-03-22T05:47:21.439Z,99148.17
2019-03-22T05:49:53.178Z,99143.12
2019-03-22T05:52:25.296Z,99151.02
2019-03-22T05:54:54.641Z,99147.45
2019-03-22T05:57:23.154Z,99146.87
2019-03-22T05:59:52.531Z,99143.84
2019-03-22T06:02:23.024Z,99145.73
2019-03-22T06:04:51.829Z,99152.30
2019-03-22T06:07:21.238Z,99154.74
2019-03-22T06:09:51.594Z,99161.72
2019-03-22T06:12:22.216Z,99159.00
2019-03-22T06:14:52.730Z,99163.28
2019-03-22T06:17:22.208Z,99162.28
2019-03-22T06:19:51.586Z,99162.38
2019-03-22T06:22:22.264Z,99160.10
2019-03-22T06:24:52.787Z,99151.80
2019-03-22T06:27:23.153Z,99151.91
2019-03-22T06:29:54.660Z,99152.86
2019-03-22T06:32:24.343Z,99141.25
2019-03-22T06:34:54.814Z,99156.28
2019-03-22T06:37:24.223Z,99151.80
2019-03-22T06:39:54.702Z,99142.24
2019-03-22T06:42:24.195Z,99144.12
2019-03-22T06:44:56.546Z,99141.39
2019-03-22T06:47:27.065Z,99152.00
2019-03-22T06:49:57.390Z,99150.45
2019-03-22T06:52:27.995Z,99156.80
2019-03-22T06:54:58.232Z,99154.34
2019-03-22T06:57:27.669Z,99158.55
2019-03-22T07:00:05.804Z,99150.92
2019-03-22T07:02:27.648Z,99150.80
2019-03-22T07:04:56.156Z,99151.17
2019-03-22T07:07:26.745Z,99151.48
2019-03-22T07:09:57.252Z,99147.81
2019-03-22T07:12:27.641Z,99136.73
2019-03-22T07:15:01.459Z,99134.98
2019-03-22T07:17:32.132Z,99142.88
2019-03-22T07:20:02.532Z,99144.97
2019-03-22T07:22:34.287Z,99145.80
2019-03-22T07:25:04.804Z,99147.03
2019-03-22T07:27:35.270Z,99158.11
2019-03-22T07:30:17.961Z,99160.50
2019-03-22T07:32:39.675Z,99162.22
2019-03-22T07:35:09.497Z,99164.93
2019-03-22T07:37:38.982Z,99165.29
2019-03-22T07:40:09.829Z,99163.23
2019-03-22T07:42:39.364Z,99160.31
2019-03-22T07:45:11.936Z,99171.39
2019-03-22T07:47:42.298Z,99167.33
2019-03-22T07:50:14.227Z,99157.80
2019-03-22T07:52:44.595Z,99160.31
2019-03-22T07:55:14.069Z,99155.89
2019-03-22T07:57:44.623Z,99160.13
2019-03-22T08:00:16.049Z,99158.90
2019-03-22T08:02:46.417Z,99154.09
2019-03-22T08:05:15.901Z,99153.77
2019-03-22T08:07:46.859Z,99148.07
2019-03-22T08:10:18.578Z,99150.98
2019-03-22T08:12:47.423Z,99147.65
2019-03-22T08:15:29.170Z,99146.13
2019-03-22T08:17:59.536Z,99144.88
2019-03-22T08:20:29.119Z,99141.61
2019-03-22T08:22:59.637Z,99154.35
2019-03-22T08:25:29.103Z,99151.52
2019-03-22T08:27:58.465Z,99154.87
2019-03-22T08:30:42.128Z,99157.52
2019-03-22T08:33:01.459Z,99155.20
2019-03-22T08:35:30.909Z,99148.90
2019-03-22T08:38:00.523Z,99145.13
2019-03-22T08:40:29.953Z,99148.72
2019-03-22T08:43:02.419Z,99145.94
2019-03-22T08:45:31.900Z,99141.55
2019-03-22T08:48:01.308Z,99130.77
2019-03-22T08:50:30.708Z,99133.89
2019-03-22T08:53:00.234Z,99141.22
2019-03-22T08:55:30.619Z,99139.06
2019-03-22T08:58:01.034Z,99143.97
2019-03-22T09:00:39.090Z,99145.05
2019-03-22T09:03:03.270Z,99139.52
2019-03-22T09:05:32.741Z,99147.17
2019-03-22T09:08:02.132Z,99144.05
2019-03-22T09:10:31.549Z,99145.94
2019-03-22T09:13:01.144Z,99142.95
2019-03-22T09:15:41.143Z,99136.44
2019-03-22T09:18:05.286Z,99139.69
2019-03-22T09:20:34.657Z,99135.13
2019-03-22T09:23:04.142Z,99139.95
2019-03-22T09:25:33.504Z,99144.19
2019-03-22T09:28:02.949Z,99131.13
2019-03-22T09:30:33.386Z,99125.44
2019-03-22T09:33:02.831Z,99132.40
2019-03-22T09:35:33.252Z,99132.13
2019-03-22T09:38:12.436Z,99133.63
2019-03-22T09:40:33.284Z,99127.30
2019-03-22T09:43:03.716Z,99122.41
2019-03-22T09:45:35.753Z,99121.12
2019-03-22T09:48:06.395Z,99118.79
2019-03-22T09:50:36.827Z,99115.69
2019-03-22T09:53:06.325Z,99108.66
2019-03-22T09:55:38.787Z,99114.22
2019-03-22T09:58:10.135Z,99111.75
2019-03-22T10:00:39.689Z,99108.39
2019-03-22T10:03:09.104Z,99100.34
2019-03-22T10:05:39.462Z,99107.69
2019-03-22T10:08:08.806Z,99106.52
2019-03-22T10:10:39.746Z,99092.98
2019-03-22T10:13:11.516Z,99091.57
2019-03-22T10:15:42.118Z,99095.20
2019-03-22T10:18:12.437Z,99092.22
2019-03-22T10:20:42.830Z,99064.95
2019-03-22T10:23:12.207Z,99064.95
2019-03-22T10:25:41.639Z,99081.58
2019-03-22T10:28:12.023Z,99060.38
2019-03-22T10:30:42.444Z,99075.52
2019-03-22T10:33:22.036Z,99069.22
2019-03-22T10:35:42.983Z,99064.11
2019-03-22T10:38:16.322Z,99069.43
2019-03-22T10:40:44.709Z,99063.10
2019-03-22T10:43:15.092Z,99066.31
2019-03-22T10:45:43.978Z,99061.61
2019-03-22T10:48:13.653Z,99064.05
2019-03-22T10:50:43.010Z,99056.37
2019-03-22T10:53:16.826Z,99057.11
2019-03-22T10:55:47.335Z,99052.37
2019-03-22T10:58:21.180Z,99052.10
2019-03-22T11:00:51.639Z,99051.34
2019-03-22T11:03:21.059Z,99049.95
2019-03-22T11:05:50.632Z,99047.33
2019-03-22T11:08:21.026Z,99047.87
2019-03-22T11:10:53.312Z,99045.01
2019-03-22T11:13:23.715Z,99044.03
2019-03-22T11:15:54.103Z,99028.95
2019-03-22T11:18:24.536Z,99040.43
2019-03-22T11:21:04.528Z,99040.43
2019-03-22T11:23:26.015Z,99043.34
2019-03-22T11:26:03.779Z,99036.52
2019-03-22T11:28:27.521Z,99039.11
2019-03-22T11:31:04.672Z,99039.11
2019-03-22T11:33:30.734Z,99032.01
2019-03-22T11:36:00.234Z,99013.14
2019-03-22T11:38:30.715Z,99035.12
2019-03-22T11:41:00.105Z,99027.73
2019-03-22T11:43:33.596Z,99017.58
2019-03-22T11:46:15.708Z,99018.14
2019-03-22T11:48:49.144Z,99006.68
2019-03-22T11:51:19.548Z,99015.00
2019-03-22T11:53:51.342Z,98987.34
2019-03-22T11:56:21.726Z,99000.99
2019-03-22T11:58:54.100Z,98973.00
2019-03-22T12:01:24.505Z,98991.89
2019-03-22T12:03:54.927Z,98990.72
2019-03-22T12:06:27.277Z,98993.39
2019-03-22T12:08:57.812Z,98994.26
2019-03-22T12:11:28.222Z,98982.55
2019-03-22T12:14:00.145Z,98980.66
2019-03-22T12:16:29.673Z,98983.89
2019-03-22T12:19:00.373Z,98979.12
2019-03-22T12:21:30.769Z,98980.43
2019-03-22T12:24:00.186Z,98973.87
2019-03-22T12:26:29.615Z,98968.23
2019-03-22T12:29:00.729Z,98958.95
2019-03-22T12:31:30.150Z,98958.95
2019-03-22T12:34:00.524Z,98950.86
2019-03-22T12:39:00.277Z,98946.25
2019-03-22T12:41:30.684Z,98943.42
2019-03-22T12:44:01.084Z,98945.58
2019-03-22T12:46:30.659Z,98933.80
2019-03-22T12:49:00.017Z,98931.03
2019-03-22T12:51:28.961Z,98935.83
2019-03-22T12:53:57.466Z,98922.32
2019-03-22T12:56:25.949Z,98929.88
2019-03-22T12:58:58.402Z,98927.50
2019-03-22T13:01:31.418Z,98900.34
2019-03-22T13:04:01.835Z,98914.33
2019-03-22T13:06:32.763Z,98911.22
2019-03-22T13:09:03.159Z,98888.33
2019-03-22T13:11:33.619Z,98888.33
2019-03-22T13:14:03.083Z,98908.41
2019-03-22T13:16:33.659Z,98887.59
2019-03-22T13:19:03.049Z,98904.55
2019-03-22T13:21:33.519Z,98904.55
2019-03-22T13:24:04.914Z,98899.91
2019-03-22T13:26:35.290Z,98899.91
2019-03-22T13:29:06.609Z,98898.67
2019-03-22T13:31:38.258Z,98892.02
2019-03-22T13:34:08.626Z,98894.05
2019-03-22T13:36:38.929Z,98896.84
2019-03-22T13:39:10.217Z,98892.27
2019-03-22T13:41:39.606Z,98896.45
2019-03-22T13:44:09.975Z,98894.43
2019-03-22T13:46:40.809Z,98888.48
2019-03-22T13:49:11.420Z,98888.23
2019-03-22T13:51:41.809Z,98885.28
2019-03-22T13:54:12.231Z,98885.18
2019-03-22T13:56:41.714Z,98875.69
2019-03-22T13:59:12.104Z,98872.58
2019-03-22T14:01:42.636Z,98867.17
2019-03-22T14:04:11.989Z,98872.42
2019-03-22T14:06:42.403Z,98864.44
2019-03-22T14:09:12.179Z,98864.73
2019-03-22T14:11:41.667Z,98856.02
2019-03-22T14:14:12.553Z,98860.72
2019-03-22T14:16:42.955Z,98848.72
2019-03-22T14:19:12.478Z,98852.27
2019-03-22T14:21:42.802Z,98821.22
2019-03-22T14:24:13.595Z,98851.74
2019-03-22T14:26:44.056Z,98844.72
2019-03-22T14:29:16.353Z,98844.72
2019-03-22T14:31:48.315Z,98849.26
2019-03-22T14:34:18.734Z,98847.92
2019-03-22T14:36:49.602Z,98841.86
2019-03-22T14:39:19.946Z,98834.95
2019-03-22T14:41:50.365Z,98827.22
2019-03-22T14:44:25.223Z,98829.66
2019-03-22T14:46:51.944Z,98832.59
2019-03-22T14:49:22.314Z,98829.55
2019-03-22T14:51:51.714Z,98829.47
2019-03-22T14:54:21.081Z,98830.36
2019-03-22T14:56:51.574Z,98830.08
2019-03-22T14:59:22.044Z,98829.52
2019-03-22T15:01:52.309Z,98829.61
2019-03-22T15:04:21.182Z,98826.77
2019-03-22T15:06:50.588Z,98824.95
2019-03-22T15:09:21.054Z,98827.21
2019-03-22T15:11:51.356Z,98828.13
2019-03-22T15:14:22.188Z,98826.25
2019-03-22T15:17:12.352Z,98821.86
2019-03-22T15:19:59.552Z,98821.96
2019-03-22T15:22:31.131Z,98819.84
2019-03-22T15:25:01.614Z,98821.96
2019-03-22T15:27:36.523Z,98817.44
2019-03-22T15:30:13.915Z,98814.73
2019-03-22T15:32:47.714Z,98811.02
2019-03-22T15:35:20.757Z,98810.54
2019-03-22T15:37:51.986Z,98812.47
2019-03-22T15:40:22.433Z,98806.88
2019-03-22T15:42:53.892Z,98806.44
2019-03-22T15:45:26.269Z,98804.66
2019-03-22T15:47:55.636Z,98806.23
2019-03-22T15:50:26.138Z,98804.67
2019-03-22T15:52:55.620Z,98808.27
2019-03-22T15:55:26.010Z,98805.84
2019-03-22T15:57:55.382Z,98805.16
2019-03-22T16:00:25.576Z,98809.98
2019-03-22T16:02:56.879Z,98801.61
2019-03-22T16:05:27.529Z,98808.98
2019-03-22T16:07:59.088Z,98802.37
2019-03-22T16:10:28.609Z,98809.30
2019-03-22T16:12:58.060Z,98804.29
2019-03-22T16:15:28.536Z,98805.92
2019-03-22T16:17:57.887Z,98809.88
2019-03-22T16:20:28.404Z,98813.81
2019-03-22T16:22:57.884Z,98813.70
2019-03-22T16:25:28.270Z,98810.72
2019-03-22T16:27:57.789Z,98812.66
2019-03-22T16:30:28.346Z,98814.84
2019-03-22T16:32:59.069Z,98804.16
2019-03-22T16:35:28.473Z,98806.27
2019-03-22T16:37:58.937Z,98805.88
2019-03-22T16:40:28.527Z,98810.65
2019-03-22T16:42:58.866Z,98809.69
2019-03-22T16:45:40.179Z,98800.95
2019-03-22T16:48:09.804Z,98808.81
2019-03-22T16:50:39.439Z,98810.15
2019-03-22T16:53:08.930Z,98810.66
2019-03-22T16:55:37.833Z,98811.34
2019-03-22T16:58:07.091Z,98804.59
2019-03-22T17:00:36.659Z,98807.52
2019-03-22T17:03:09.943Z,98812.80
2019-03-22T17:05:39.455Z,98808.84
2019-03-22T17:08:10.031Z,98804.14
2019-03-22T17:10:42.009Z,98803.25
2019-03-22T17:13:12.655Z,98800.00
2019-03-22T17:15:43.531Z,98802.72
2019-03-22T17:18:13.105Z,98795.08
2019-03-22T17:20:43.707Z,98797.64
2019-03-22T17:23:14.774Z,98793.56
2019-03-22T17:25:44.411Z,98795.25
2019-03-22T17:28:16.031Z,98796.47
2019-03-22T17:30:47.982Z,98797.28
2019-03-22T17:33:18.989Z,98797.12
2019-03-22T17:35:50.957Z,98800.41
2019-03-22T17:38:21.291Z,98792.82
2019-03-22T17:40:52.211Z,98798.36
2019-03-22T17:43:23.959Z,98800.72
2019-03-22T17:45:54.382Z,98803.54
2019-03-22T17:48:25.878Z,98802.48
2019-03-22T17:50:56.385Z,98799.73
2019-03-22T17:53:24.885Z,98798.64
2019-03-22T17:55:57.278Z,98799.73
2019-03-22T17:58:29.074Z,98803.84
2019-03-22T18:00:58.556Z,98802.08
2019-03-22T18:03:28.881Z,98809.22
2019-03-22T18:06:00.850Z,98802.65
2019-03-22T18:08:31.303Z,98810.77
2019-03-22T18:11:03.391Z,98810.60
2019-03-22T18:13:33.744Z,98810.50
2019-03-22T18:16:03.252Z,98808.53
2019-03-22T18:18:33.658Z,98811.09
2019-03-22T18:21:03.124Z,98811.56
2019-03-22T18:23:35.884Z,98814.82
2019-03-22T18:26:03.758Z,98811.69
2019-03-22T18:28:34.124Z,98814.02
2019-03-22T18:31:04.521Z,98818.50
2019-03-22T18:33:35.827Z,98817.81
2019-03-22T18:36:06.281Z,98825.34
2019-03-22T18:38:37.623Z,98825.80
2019-03-22T18:41:10.949Z,98826.66
2019-03-22T18:43:39.730Z,98830.92
2019-03-22T18:46:10.320Z,98834.72
2019-03-22T18:48:39.702Z,98833.91
2019-03-22T18:51:09.254Z,98835.07
2019-03-22T18:53:39.629Z,98836.18
2019-03-22T18:56:10.049Z,98829.08
2019-03-22T18:58:39.561Z,98832.61
2019-03-22T19:01:10.025Z,98834.18
2019-03-22T19:03:38.856Z,98824.73
2019-03-22T19:06:07.908Z,98831.97
2019-03-22T19:08:38.447Z,98824.86
2019-03-22T19:11:08.922Z,98824.16
2019-03-22T19:13:38.335Z,98828.23
2019-03-22T19:16:08.914Z,98830.72
2019-03-22T19:18:38.302Z,98825.97
2019-03-22T19:21:08.665Z,98825.88
2019-03-22T19:23:39.035Z,98824.43
2019-03-22T19:26:09.424Z,98821.02
2019-03-22T19:28:43.013Z,98817.63
2019-03-22T19:31:13.421Z,98818.20
2019-03-22T19:33:42.895Z,98822.23
2019-03-22T19:36:12.291Z,98822.02
2019-03-22T19:38:41.682Z,98824.09
2019-03-22T19:41:12.023Z,98819.77
2019-03-22T19:43:41.533Z,98825.39
2019-03-22T19:46:11.987Z,98820.83
2019-03-22T19:48:41.392Z,98825.09
2019-03-22T19:51:10.188Z,98826.55
2019-03-22T19:53:40.618Z,98825.41
2019-03-22T19:56:12.892Z,98830.61
2019-03-22T19:58:42.287Z,98833.33
2019-03-22T20:01:12.876Z,98830.56
2019-03-22T20:03:43.366Z,98823.80
2019-03-22T20:06:15.063Z,98830.30
2019-03-22T20:08:46.689Z,98836.54
2019-03-22T20:11:17.101Z,98834.92
2019-03-22T20:13:47.436Z,98835.33
2019-03-22T20:16:19.372Z,98834.20
2019-03-22T20:18:48.784Z,98838.49
2019-03-22T20:21:19.127Z,98829.14
2019-03-22T20:23:53.736Z,98837.13
2019-03-22T20:26:22.030Z,98834.85
2019-03-22T20:28:52.444Z,98838.44
2019-03-22T20:31:22.766Z,98834.05
2019-03-22T20:33:52.221Z,98843.78
2019-03-22T20:36:24.623Z,98840.77
2019-03-22T20:38:55.310Z,98839.16
2019-03-22T20:41:25.682Z,98843.30
2019-03-22T20:43:56.185Z,98840.93
2019-03-22T20:46:26.640Z,98846.75
2019-03-22T20:48:57.259Z,98843.03
2019-03-22T20:51:26.832Z,98847.06
2019-03-22T20:53:57.169Z,98845.02
2019-03-22T20:56:26.518Z,98852.04
2019-03-22T20:58:55.106Z,98844.80
2019-03-22T21:01:25.514Z,98848.30
2019-03-22T21:03:54.990Z,98845.52
2019-03-22T21:06:23.819Z,98845.75
2019-03-22T21:08:53.246Z,98847.40
2019-03-22T21:11:23.574Z,98843.67
2019-03-22T21:13:54.038Z,98851.33
2019-03-22T21:16:24.393Z,98851.20
2019-03-22T21:18:53.981Z,98851.73
2019-03-22T21:21:28.013Z,98848.33
2019-03-22T21:23:54.510Z,98857.09
2019-03-22T21:26:24.915Z,98855.50
2019-03-22T21:28:55.247Z,98843.45
2019-03-22T21:31:25.785Z,98854.22
2019-03-22T21:33:55.194Z,98846.78
2019-03-22T21:36:25.494Z,98850.72
2019-03-22T21:38:54.930Z,98849.34
2019-03-22T21:41:25.324Z,98846.41
2019-03-22T21:43:55.826Z,98851.23
2019-03-22T21:46:26.320Z,98854.62
2019-03-22T21:48:56.788Z,98854.37
2019-03-22T21:51:28.939Z,98854.13
2019-03-22T21:54:02.882Z,98847.48
2019-03-22T21:56:32.391Z,98840.95
2019-03-22T21:59:02.768Z,98842.23
2019-03-22T22:01:33.165Z,98844.36
2019-03-22T22:04:02.563Z,98842.74
2019-03-22T22:06:31.998Z,98841.86
2019-03-22T22:09:02.400Z,98838.10
2019-03-22T22:11:34.254Z,98839.86
2019-03-22T22:14:04.763Z,98833.97
2019-03-22T22:16:35.291Z,98838.61
2019-03-22T22:19:07.664Z,98838.23
2019-03-22T22:21:38.030Z,98837.59
2019-03-22T22:24:08.494Z,98832.95
2019-03-22T22:26:38.959Z,98829.09
2019-03-22T22:29:09.604Z,98835.84
2019-03-22T22:31:39.984Z,98831.33
2019-03-22T22:34:10.417Z,98840.09
2019-03-22T22:36:39.881Z,98845.49
2019-03-22T22:39:09.281Z,98846.59
2019-03-22T22:41:39.660Z,98836.90
2019-03-22T22:44:10.406Z,98842.91
2019-03-22T22:46:40.781Z,98840.08
2019-03-22T22:49:10.179Z,98841.77
2019-03-22T22:51:40.761Z,98838.51
2019-03-22T22:54:10.154Z,98838.51
2019-03-22T22:56:39.510Z,98838.08
2019-03-22T22:59:11.877Z,98834.73
2019-03-22T23:01:40.755Z,98836.74
2019-03-22T23:04:11.203Z,98827.78
2019-03-22T23:06:41.716Z,98832.03
2019-03-22T23:09:12.119Z,98834.07
2019-03-22T23:11:41.527Z,98838.67
2019-03-22T23:14:10.946Z,98830.14
2019-03-22T23:16:44.694Z,98833.05
2019-03-22T23:19:15.055Z,98837.24
2019-03-22T23:21:45.637Z,98844.23
2019-03-22T23:24:15.983Z,98841.56
2019-03-22T23:26:45.538Z,98845.68
2019-03-22T23:29:15.002Z,98847.05
2019-03-22T23:31:45.781Z,98843.28
2019-03-22T23:34:16.145Z,98844.41
2019-03-22T23:36:46.809Z,98846.10
2019-03-22T23:39:17.509Z,98847.23
2019-03-22T23:41:46.882Z,98852.37
2019-03-22T23:44:17.274Z,98842.19
2019-03-22T23:46:49.488Z,98849.92
2019-03-22T23:49:20.050Z,98851.54
2019-03-22T23:51:49.550Z,98846.55
2019-03-22T23:54:19.014Z,98846.39
2019-03-22T23:56:49.365Z,98846.91
2019-03-22T23:59:19.855Z,98848.89
